Time;durP1;ratioP1;P1;durP2;ratioP2;P2;SDS_P1;SDS_P2;PMS_P1;PMS_P2;Temp;Humidity;BMP_temperature;BMP_pressure;BME280_temperature;BME280_humidity;BME280_pressure;Samples;Min_cycle;Max_cycle;Signal;HPM_P1;HPM_P2
2022/09/16 00:00:13;;;;;;;1.30;1.10;;;;;;;;;;7387656;19;19994;-71
2022/09/16 00:02:38;;;;;;;2.40;1.05;;;;;;;;;;7385385;19;20002;-71
2022/09/16 00:05:04;;;;;;;1.58;1.05;;;;;;;;;;7387328;19;19995;-71
2022/09/16 00:07:29;;;;;;;1.55;0.85;;;;;;;;;;7385732;19;20002;-71
2022/09/16 00:09:54;;;;;;;0.65;0.57;;;;;;;;;;7387240;19;20005;-71
2022/09/16 00:12:20;;;;;;;1.95;1.20;;;;;;;;;;7386766;19;20110;-70
2022/09/16 00:14:46;;;;;;;2.50;1.20;;;;;;;;;;7391359;19;20011;-71
2022/09/16 00:17:11;;;;;;;0.95;0.93;;;;;;;;;;7386482;19;20011;-71
2022/09/16 00:19:36;;;;;;;4.50;0.85;;;;;;;;;;7387028;19;20168;-71
2022/09/16 00:22:02;;;;;;;3.58;1.25;;;;;;;;;;7383393;19;20003;-71
2022/09/16 00:24:28;;;;;;;0.85;0.73;;;;;;;;;;7385359;19;20066;-72
2022/09/16 00:26:53;;;;;;;1.48;0.93;;;;;;;;;;7387094;19;20009;-72
2022/09/16 00:29:19;;;;;;;0.77;0.77;;;;;;;;;;7386836;19;20007;-71
2022/09/16 00:31:44;;;;;;;0.80;0.70;;;;;;;;;;7383920;19;20022;-71
2022/09/16 00:34:09;;;;;;;0.60;0.60;;;;;;;;;;7386434;19;19999;-72
2022/09/16 00:36:34;;;;;;;2.40;1.17;;;;;;;;;;7385997;19;20310;-71
2022/09/16 00:39:00;;;;;;;2.10;0.77;;;;;;;;;;7386422;19;19999;-71
2022/09/16 00:41:31;;;;;;;3.50;1.20;;;;;;;;;;7385091;19;20010;-71
2022/09/16 00:44:03;;;;;;;1.33;0.75;;;;;;;;;;7386446;19;20082;-71
2022/09/16 00:46:42;;;;;;;1.80;0.85;;;;;;;;;;7381204;19;20479;-71
2022/09/16 00:49:14;;;;;;;0.98;0.88;;;;;;;;;;7379513;19;20364;-72
2022/09/16 00:51:41;;;;;;;2.22;0.80;;;;;;;;;;7380957;19;20006;-71
2022/09/16 00:54:08;;;;;;;0.88;0.70;;;;;;;;;;7381682;19;20104;-71
2022/09/16 00:56:39;;;;;;;1.98;1.05;;;;;;;;;;7381529;19;20006;-71
2022/09/16 00:59:13;;;;;;;0.63;0.63;;;;;;;;;;7386701;19;20114;-72
2022/09/16 01:01:41;;;;;;;1.52;0.90;;;;;;;;;;7388323;19;20366;-71
2022/09/16 01:04:14;;;;;;;1.95;0.93;;;;;;;;;;7392106;19;20037;-68
2022/09/16 01:06:40;;;;;;;0.85;0.60;;;;;;;;;;7391883;19;20002;-70
2022/09/16 01:09:06;;;;;;;0.77;0.77;;;;;;;;;;7388821;19;20459;-70
2022/09/16 01:11:31;;;;;;;1.88;1.10;;;;;;;;;;7386242;19;20440;-70
2022/09/16 01:14:51;;;;;;;3.00;1.00;;;;;;;;;;7385612;19;20023;-70
2022/09/16 01:16:57;;;;;;;3.60;1.27;;;;;;;;;;7386639;19;20006;-70
2022/09/16 01:20:00;;;;;;;1.60;1.05;;;;;;;;;;7385605;19;20003;-70
2022/09/16 01:22:43;;;;;;;0.85;0.80;;;;;;;;;;7385187;19;20363;-71
2022/09/16 01:25:27;;;;;;;1.75;0.98;;;;;;;;;;7387467;19;20018;-70
2022/09/16 01:28:21;;;;;;;1.02;0.90;;;;;;;;;;7391711;19;20341;-70
2022/09/16 01:31:12;;;;;;;1.02;0.90;;;;;;;;;;7389595;19;20345;-70
2022/09/16 01:33:37;;;;;;;0.70;0.70;;;;;;;;;;7391364;19;19999;-70
2022/09/16 01:36:21;;;;;;;1.80;0.80;;;;;;;;;;7395674;19;19997;-70
2022/09/16 01:39:00;;;;;;;2.70;0.93;;;;;;;;;;7386956;19;20565;-70
2022/09/16 01:41:47;;;;;;;1.95;0.80;;;;;;;;;;7388919;19;20077;-70
2022/09/16 01:44:38;;;;;;;2.00;1.15;;;;;;;;;;7387360;19;19994;-70
2022/09/16 01:47:27;;;;;;;1.80;0.88;;;;;;;;;;7391647;19;19999;-70
2022/09/16 01:49:58;;;;;;;1.38;0.80;;;;;;;;;;7389468;19;19994;-70
2022/09/16 01:52:48;;;;;;;3.45;0.90;;;;;;;;;;7387656;19;20010;-70
2022/09/16 01:55:33;;;;;;;0.95;0.90;;;;;;;;;;7391358;19;19998;-70
2022/09/16 01:58:08;;;;;;;0.68;0.68;;;;;;;;;;7389452;19;20485;-70
2022/09/16 02:00:33;;;;;;;3.50;0.93;;;;;;;;;;7389430;19;19995;-70
2022/09/16 02:03:12;;;;;;;0.60;0.60;;;;;;;;;;7390474;19;20346;-69
2022/09/16 02:05:49;;;;;;;0.57;0.52;;;;;;;;;;7391288;19;20066;-69
2022/09/16 02:08:21;;;;;;;0.82;0.70;;;;;;;;;;7389337;19;20078;-69
2022/09/16 02:10:52;;;;;;;1.95;0.70;;;;;;;;;;7388554;19;20317;-69
2022/09/16 02:13:29;;;;;;;3.22;0.75;;;;;;;;;;7388423;19;20010;-70
2022/09/16 02:16:05;;;;;;;5.15;1.23;;;;;;;;;;7389008;19;20127;-70
2022/09/16 02:18:35;;;;;;;0.73;0.73;;;;;;;;;;7387184;19;19995;-70
2022/09/16 02:21:04;;;;;;;0.98;0.85;;;;;;;;;;7390319;19;19999;-70
2022/09/16 02:23:38;;;;;;;0.57;0.55;;;;;;;;;;7390884;19;20121;-70
2022/09/16 02:26:05;;;;;;;1.73;0.80;;;;;;;;;;7390587;19;19999;-70
2022/09/16 02:28:36;;;;;;;0.73;0.60;;;;;;;;;;7390367;19;20323;-71
2022/09/16 02:31:05;;;;;;;0.75;0.75;;;;;;;;;;7388163;19;20389;-70
2022/09/16 02:33:37;;;;;;;0.50;0.50;;;;;;;;;;7390365;19;20001;-70
2022/09/16 02:36:05;;;;;;;0.52;0.50;;;;;;;;;;7390062;19;20006;-71
2022/09/16 02:38:39;;;;;;;2.28;0.47;;;;;;;;;;7386371;19;19995;-71
2022/09/16 02:41:05;;;;;;;0.57;0.52;;;;;;;;;;7387575;19;20483;-72
2022/09/16 02:43:31;;;;;;;0.55;0.55;;;;;;;;;;7389418;19;19999;-70
2022/09/16 02:46:03;;;;;;;3.50;0.80;;;;;;;;;;7388226;19;19998;-72
2022/09/16 02:48:37;;;;;;;1.85;0.63;;;;;;;;;;7389341;19;20376;-71
2022/09/16 02:51:25;;;;;;;1.40;1.30;;;;;;;;;;7388780;19;19995;-70
2022/09/16 02:54:21;;;;;;;0.50;0.50;;;;;;;;;;7389753;19;20420;-69
2022/09/16 02:56:46;;;;;;;2.17;0.43;;;;;;;;;;7388855;19;19999;-69
2022/09/16 02:59:14;;;;;;;0.52;0.52;;;;;;;;;;7389252;19;19995;-70
2022/09/16 03:01:43;;;;;;;2.65;0.90;;;;;;;;;;7388079;19;20095;-70
2022/09/16 03:04:10;;;;;;;2.75;1.10;;;;;;;;;;7388361;19;19990;-70
2022/09/16 03:06:35;;;;;;;0.80;0.60;;;;;;;;;;7386459;19;20022;-70
2022/09/16 03:09:04;;;;;;;7.43;3.75;;;;;;;;;;7388218;19;19991;-70
2022/09/16 03:11:43;;;;;;;7.22;3.63;;;;;;;;;;7387096;19;20464;-70
2022/09/16 03:14:46;;;;;;;4.43;2.35;;;;;;;;;;7388391;19;20415;-70
2022/09/16 03:17:28;;;;;;;1.38;0.80;;;;;;;;;;7387404;19;20397;-69
2022/09/16 03:20:10;;;;;;;2.25;0.88;;;;;;;;;;7388442;19;20076;-69
2022/09/16 03:22:57;;;;;;;0.50;0.50;;;;;;;;;;7385968;19;20004;-70
2022/09/16 03:25:23;;;;;;;1.58;0.70;;;;;;;;;;7388178;19;20628;-69
2022/09/16 03:27:56;;;;;;;9.05;4.22;;;;;;;;;;7387977;19;19995;-70
2022/09/16 03:30:21;;;;;;;4.30;2.15;;;;;;;;;;7387863;19;19994;-69
2022/09/16 03:32:57;;;;;;;2.17;1.20;;;;;;;;;;7385021;19;20028;-70
2022/09/16 03:35:28;;;;;;;3.15;0.95;;;;;;;;;;7386094;19;19995;-70
2022/09/16 03:37:56;;;;;;;1.70;0.90;;;;;;;;;;7387333;19;19990;-70
2022/09/16 03:40:22;;;;;;;1.08;0.98;;;;;;;;;;7387879;19;19998;-70
2022/09/16 03:42:48;;;;;;;0.43;0.43;;;;;;;;;;7385618;19;20002;-70
2022/09/16 03:45:17;;;;;;;0.95;0.93;;;;;;;;;;7387661;19;19998;-70
2022/09/16 03:47:45;;;;;;;1.35;1.25;;;;;;;;;;7385834;19;20371;-70
2022/09/16 03:50:10;;;;;;;1.70;0.63;;;;;;;;;;7387518;19;20098;-70
2022/09/16 03:52:36;;;;;;;4.30;0.80;;;;;;;;;;7385595;19;20165;-70
2022/09/16 03:55:01;;;;;;;0.75;0.75;;;;;;;;;;7387548;19;20564;-70
2022/09/16 03:57:29;;;;;;;0.50;0.50;;;;;;;;;;7385144;19;20019;-70
2022/09/16 03:59:54;;;;;;;0.77;0.75;;;;;;;;;;7388068;19;19995;-69
2022/09/16 04:02:19;;;;;;;1.23;1.00;;;;;;;;;;7389816;19;20164;-70
2022/09/16 04:04:45;;;;;;;0.88;0.80;;;;;;;;;;7387264;19;20001;-70
2022/09/16 04:07:10;;;;;;;1.75;1.00;;;;;;;;;;7387317;19;20155;-70
2022/09/16 04:09:36;;;;;;;2.05;1.13;;;;;;;;;;7387593;19;19990;-70
2022/09/16 04:12:02;;;;;;;2.25;0.98;;;;;;;;;;7383971;19;20005;-70
2022/09/16 04:14:28;;;;;;;1.02;0.93;;;;;;;;;;7385577;19;20353;-70
2022/09/16 04:16:54;;;;;;;1.55;1.08;;;;;;;;;;7386665;19;19995;-70
2022/09/16 04:19:19;;;;;;;0.82;0.82;;;;;;;;;;7387158;19;20031;-72
2022/09/16 04:21:44;;;;;;;2.13;1.08;;;;;;;;;;7385096;19;21337;-72
2022/09/16 04:24:10;;;;;;;1.88;1.00;;;;;;;;;;7383527;19;19999;-72
2022/09/16 04:26:35;;;;;;;1.20;1.10;;;;;;;;;;7382033;19;19998;-73
2022/09/16 04:29:01;;;;;;;3.72;1.20;;;;;;;;;;7384393;19;20526;-73
2022/09/16 04:31:26;;;;;;;1.65;1.10;;;;;;;;;;7384208;19;20006;-72
2022/09/16 04:33:51;;;;;;;0.70;0.70;;;;;;;;;;7388753;19;19995;-71
2022/09/16 04:36:19;;;;;;;2.13;1.40;;;;;;;;;;7395777;19;20010;-72
2022/09/16 04:38:46;;;;;;;1.35;1.15;;;;;;;;;;7395027;19;20010;-73
2022/09/16 04:41:20;;;;;;;4.25;1.40;;;;;;;;;;7397981;19;20054;-71
2022/09/16 04:43:49;;;;;;;3.22;1.45;;;;;;;;;;7394650;19;20003;-72
2022/09/16 04:46:14;;;;;;;1.25;0.90;;;;;;;;;;7397111;19;20531;-73
2022/09/16 04:48:39;;;;;;;3.55;1.50;;;;;;;;;;7397290;19;20022;-72
2022/09/16 04:51:10;;;;;;;2.45;1.30;;;;;;;;;;7396363;19;20102;-71
2022/09/16 04:53:37;;;;;;;2.33;1.23;;;;;;;;;;7391512;19;20577;-73
2022/09/16 04:56:04;;;;;;;3.08;1.20;;;;;;;;;;7394085;19;20465;-72
2022/09/16 04:58:29;;;;;;;3.53;1.50;;;;;;;;;;7394785;19;20006;-72
2022/09/16 05:01:06;;;;;;;3.15;1.48;;;;;;;;;;7394225;19;20012;-71
2022/09/16 05:03:34;;;;;;;1.27;1.00;;;;;;;;;;7392363;19;20002;-72
2022/09/16 05:06:17;;;;;;;1.25;0.88;;;;;;;;;;7397968;19;20479;-71
2022/09/16 05:08:42;;;;;;;2.40;1.10;;;;;;;;;;7397709;19;19995;-72
2022/09/16 05:11:14;;;;;;;1.50;1.13;;;;;;;;;;7396848;19;20065;-71
2022/09/16 05:13:42;;;;;;;1.30;1.02;;;;;;;;;;7393670;19;20335;-71
2022/09/16 05:16:20;;;;;;;0.80;0.80;;;;;;;;;;7394995;19;20006;-71
2022/09/16 05:18:48;;;;;;;1.52;1.20;;;;;;;;;;7394961;19;20027;-73
2022/09/16 05:21:17;;;;;;;3.05;1.33;;;;;;;;;;7396914;19;20468;-72
2022/09/16 05:23:43;;;;;;;4.53;1.55;;;;;;;;;;7395072;19;20002;-71
2022/09/16 05:26:20;;;;;;;2.28;1.27;;;;;;;;;;7396535;19;20355;-72
2022/09/16 05:28:45;;;;;;;2.70;1.38;;;;;;;;;;7393176;19;20473;-72
2022/09/16 05:31:17;;;;;;;1.23;1.00;;;;;;;;;;7395445;19;20003;-72
2022/09/16 05:33:44;;;;;;;4.90;1.75;;;;;;;;;;7397074;19;20015;-71
2022/09/16 05:36:17;;;;;;;1.25;1.15;;;;;;;;;;7396955;19;19999;-73
2022/09/16 05:38:45;;;;;;;3.22;1.20;;;;;;;;;;7391536;19;20012;-71
2022/09/16 05:41:11;;;;;;;4.07;1.33;;;;;;;;;;7396019;19;19999;-71
2022/09/16 05:43:39;;;;;;;4.55;1.45;;;;;;;;;;7393578;19;20066;-71
2022/09/16 05:46:05;;;;;;;3.58;1.27;;;;;;;;;;7396763;19;20013;-73
2022/09/16 05:48:31;;;;;;;1.77;1.23;;;;;;;;;;7390802;19;20034;-71
2022/09/16 05:50:59;;;;;;;3.47;1.52;;;;;;;;;;7392337;19;20002;-70
2022/09/16 05:53:26;;;;;;;1.23;1.13;;;;;;;;;;7394432;19;20009;-78
2022/09/16 05:56:01;;;;;;;2.53;1.88;;;;;;;;;;7391409;19;20081;-78
2022/09/16 05:58:29;;;;;;;2.20;1.20;;;;;;;;;;7391286;19;20002;-79
2022/09/16 06:01:16;;;;;;;1.60;1.02;;;;;;;;;;7392083;19;20002;-76
2022/09/16 06:03:43;;;;;;;1.30;0.88;;;;;;;;;;7393912;19;20071;-77
2022/09/16 06:06:41;;;;;;;1.65;1.15;;;;;;;;;;7387706;19;20309;-78
2022/09/16 06:09:18;;;;;;;1.40;0.93;;;;;;;;;;7383752;19;19999;-72
2022/09/16 06:11:46;;;;;;;5.00;1.60;;;;;;;;;;7392414;19;20317;-72
2022/09/16 06:14:13;;;;;;;1.35;1.20;;;;;;;;;;7391766;19;20010;-75
2022/09/16 06:16:38;;;;;;;3.30;1.10;;;;;;;;;;7394250;19;20030;-72
2022/09/16 06:19:09;;;;;;;4.40;1.15;;;;;;;;;;7394112;19;20491;-75
2022/09/16 06:21:34;;;;;;;1.10;0.95;;;;;;;;;;7393657;19;20454;-76
2022/09/16 06:24:00;;;;;;;1.38;0.82;;;;;;;;;;7394318;19;20002;-75
2022/09/16 06:26:26;;;;;;;2.13;0.98;;;;;;;;;;7393180;19;19995;-76
2022/09/16 06:28:52;;;;;;;6.53;1.25;;;;;;;;;;7393498;19;19995;-75
2022/09/16 06:31:27;;;;;;;1.52;1.15;;;;;;;;;;7394329;19;20002;-75
2022/09/16 06:33:54;;;;;;;1.02;0.93;;;;;;;;;;7391402;19;20006;-75
2022/09/16 06:36:22;;;;;;;1.58;1.00;;;;;;;;;;7392118;19;20002;-75
2022/09/16 06:38:48;;;;;;;0.70;0.70;;;;;;;;;;7389140;19;20011;-75
2022/09/16 06:41:15;;;;;;;1.25;1.08;;;;;;;;;;7390658;19;20023;-71
2022/09/16 06:43:41;;;;;;;3.35;1.05;;;;;;;;;;7390194;19;20337;-72
2022/09/16 06:46:12;;;;;;;3.58;1.20;;;;;;;;;;7394242;19;20058;-73
2022/09/16 06:48:39;;;;;;;1.10;0.95;;;;;;;;;;7393391;19;20003;-75
2022/09/16 06:51:08;;;;;;;6.20;1.63;;;;;;;;;;7392417;19;19999;-73
2022/09/16 06:53:33;;;;;;;3.70;2.05;;;;;;;;;;7391303;19;20006;-74
2022/09/16 06:56:00;;;;;;;1.58;1.10;;;;;;;;;;7391348;19;20030;-76
2022/09/16 06:58:26;;;;;;;0.82;0.82;;;;;;;;;;7390819;19;20378;-75
2022/09/16 07:00:51;;;;;;;6.60;2.10;;;;;;;;;;7391300;19;20370;-75
2022/09/16 07:03:16;;;;;;;0.80;0.80;;;;;;;;;;7391979;19;20042;-69
2022/09/16 07:05:42;;;;;;;1.60;1.10;;;;;;;;;;7389353;19;20002;-71
2022/09/16 07:08:07;;;;;;;1.48;0.93;;;;;;;;;;7390131;19;20028;-71
2022/09/16 07:10:32;;;;;;;0.70;0.70;;;;;;;;;;7388121;19;20020;-73
2022/09/16 07:12:58;;;;;;;3.33;1.13;;;;;;;;;;7389731;19;20521;-74
2022/09/16 07:15:23;;;;;;;2.08;1.10;;;;;;;;;;7392336;19;20002;-72
2022/09/16 07:17:53;;;;;;;1.20;1.05;;;;;;;;;;7387544;19;20062;-73
2022/09/16 07:20:19;;;;;;;4.57;1.02;;;;;;;;;;7390990;19;20022;-76
2022/09/16 07:22:44;;;;;;;1.48;1.00;;;;;;;;;;7389117;19;20484;-76
2022/09/16 07:25:09;;;;;;;0.55;0.50;;;;;;;;;;7392010;19;20019;-77
2022/09/16 07:27:35;;;;;;;2.92;1.08;;;;;;;;;;7390215;19;19991;-80
2022/09/16 07:30:00;;;;;;;3.20;0.88;;;;;;;;;;7390249;19;20464;-72
2022/09/16 07:32:25;;;;;;;7.55;1.67;;;;;;;;;;7388131;19;19999;-72
2022/09/16 07:34:52;;;;;;;3.72;2.00;;;;;;;;;;7391405;19;20014;-72
2022/09/16 07:37:18;;;;;;;2.63;1.10;;;;;;;;;;7390197;19;20010;-71
2022/09/16 07:39:44;;;;;;;2.17;0.93;;;;;;;;;;7389111;19;20348;-72
2022/09/16 07:42:10;;;;;;;1.95;0.88;;;;;;;;;;7386474;19;20058;-69
2022/09/16 07:44:35;;;;;;;0.95;0.85;;;;;;;;;;7390684;19;20335;-69
2022/09/16 07:47:01;;;;;;;1.67;1.00;;;;;;;;;;7386618;19;20527;-69
2022/09/16 07:49:26;;;;;;;1.52;0.85;;;;;;;;;;7391414;19;20006;-69
2022/09/16 07:51:54;;;;;;;1.23;0.98;;;;;;;;;;7382983;19;19998;-68
2022/09/16 07:54:20;;;;;;;1.67;0.88;;;;;;;;;;7388711;19;20014;-68
2022/09/16 07:56:48;;;;;;;1.25;0.73;;;;;;;;;;7386092;19;19998;-69
2022/09/16 07:59:17;;;;;;;0.80;0.80;;;;;;;;;;7386422;19;20030;-69
2022/09/16 08:01:42;;;;;;;1.38;0.80;;;;;;;;;;7384497;19;20006;-69
2022/09/16 08:04:08;;;;;;;1.38;0.90;;;;;;;;;;7386332;19;19997;-69
2022/09/16 08:06:36;;;;;;;1.50;0.70;;;;;;;;;;7388017;19;20009;-69
2022/09/16 08:09:02;;;;;;;1.13;0.65;;;;;;;;;;7387259;19;19998;-69
2022/09/16 08:11:28;;;;;;;3.88;0.93;;;;;;;;;;7391709;19;20006;-68
2022/09/16 08:13:54;;;;;;;2.78;0.93;;;;;;;;;;7388255;19;20013;-69
2022/09/16 08:16:21;;;;;;;0.65;0.60;;;;;;;;;;7390116;19;19998;-69
2022/09/16 08:18:49;;;;;;;0.70;0.60;;;;;;;;;;7389074;19;20002;-69
2022/09/16 08:21:18;;;;;;;1.75;1.05;;;;;;;;;;7391246;19;20422;-68
2022/09/16 08:23:44;;;;;;;4.53;0.93;;;;;;;;;;7387410;19;20006;-69
2022/09/16 08:26:12;;;;;;;0.93;0.70;;;;;;;;;;7389449;19;20153;-69
2022/09/16 08:28:40;;;;;;;1.98;0.85;;;;;;;;;;7389562;19;20023;-68
2022/09/16 08:31:06;;;;;;;2.30;0.95;;;;;;;;;;7389959;19;20003;-68
2022/09/16 08:33:31;;;;;;;1.05;0.68;;;;;;;;;;7389187;19;20014;-68
2022/09/16 08:36:03;;;;;;;1.08;0.57;;;;;;;;;;7388229;19;20002;-69
2022/09/16 08:38:29;;;;;;;1.23;0.75;;;;;;;;;;7387843;19;19998;-69
2022/09/16 08:41:04;;;;;;;3.30;0.73;;;;;;;;;;7387780;19;20007;-70
2022/09/16 08:43:44;;;;;;;1.77;0.80;;;;;;;;;;7389084;19;20066;-68
2022/09/16 08:46:30;;;;;;;0.75;0.70;;;;;;;;;;7388146;19;20120;-70
2022/09/16 08:49:05;;;;;;;1.10;0.90;;;;;;;;;;7388739;19;19998;-69
2022/09/16 08:51:31;;;;;;;1.83;0.80;;;;;;;;;;7389866;19;19999;-69
2022/09/16 08:53:59;;;;;;;2.45;0.70;;;;;;;;;;7387574;19;20002;-69
2022/09/16 08:56:28;;;;;;;1.13;0.68;;;;;;;;;;7388286;19;20511;-70
2022/09/16 08:58:56;;;;;;;1.13;0.90;;;;;;;;;;7385140;19;19999;-70
2022/09/16 09:01:43;;;;;;;0.73;0.68;;;;;;;;;;7389445;19;20010;-68
2022/09/16 09:04:11;;;;;;;0.60;0.43;;;;;;;;;;7385939;19;20006;-68
2022/09/16 09:06:42;;;;;;;2.35;0.98;;;;;;;;;;7388540;19;19999;-68
2022/09/16 09:09:35;;;;;;;0.68;0.68;;;;;;;;;;7388997;19;20006;-69
2022/09/16 09:12:07;;;;;;;0.70;0.70;;;;;;;;;;7384548;19;19999;-70
2022/09/16 09:15:06;;;;;;;1.83;0.63;;;;;;;;;;7388886;19;20468;-68
2022/09/16 09:17:47;;;;;;;0.77;0.70;;;;;;;;;;7386666;19;19999;-68
2022/09/16 09:20:26;;;;;;;1.77;0.80;;;;;;;;;;7391936;19;20007;-68
2022/09/16 09:23:22;;;;;;;1.23;0.82;;;;;;;;;;7391983;19;20028;-69
2022/09/16 09:25:53;;;;;;;1.48;0.73;;;;;;;;;;7396056;19;20537;-70
2022/09/16 09:28:50;;;;;;;1.60;0.77;;;;;;;;;;7396367;19;20002;-69
2022/09/16 09:31:52;;;;;;;2.75;0.73;;;;;;;;;;7394347;19;20007;-69
2022/09/16 09:34:55;;;;;;;0.68;0.47;;;;;;;;;;7394605;19;20011;-68
2022/09/16 09:37:53;;;;;;;1.67;0.70;;;;;;;;;;7395231;19;20024;-69
2022/09/16 09:40:29;;;;;;;0.63;0.60;;;;;;;;;;7394068;19;20071;-67
2022/09/16 09:43:04;;;;;;;0.47;0.40;;;;;;;;;;7393197;19;20105;-70
2022/09/16 09:45:37;;;;;;;0.55;0.45;;;;;;;;;;7394105;19;20003;-69
2022/09/16 09:48:04;;;;;;;3.03;0.98;;;;;;;;;;7395321;19;19999;-69
2022/09/16 09:50:41;;;;;;;2.10;0.93;;;;;;;;;;7394178;19;19998;-70
2022/09/16 09:53:28;;;;;;;3.50;1.13;;;;;;;;;;7393155;19;20418;-70
2022/09/16 09:56:03;;;;;;;0.85;0.55;;;;;;;;;;7395265;19;20011;-69
2022/09/16 09:58:39;;;;;;;1.50;0.50;;;;;;;;;;7384229;19;20015;-66
2022/09/16 10:01:05;;;;;;;0.40;0.40;;;;;;;;;;7389493;19;20026;-67
2022/09/16 10:03:30;;;;;;;2.35;0.47;;;;;;;;;;7384692;19;20002;-68
2022/09/16 10:05:56;;;;;;;1.85;0.70;;;;;;;;;;7388991;19;20006;-66
2022/09/16 10:08:24;;;;;;;0.88;0.40;;;;;;;;;;7388670;19;20405;-67
2022/09/16 10:10:56;;;;;;;1.50;0.70;;;;;;;;;;7387125;19;20022;-68
2022/09/16 10:13:23;;;;;;;0.45;0.43;;;;;;;;;;7386251;19;20012;-67
2022/09/16 10:15:52;;;;;;;0.93;0.60;;;;;;;;;;7388591;19;20475;-66
2022/09/16 10:18:22;;;;;;;3.90;0.63;;;;;;;;;;7386508;19;20006;-66
2022/09/16 10:20:58;;;;;;;0.47;0.47;;;;;;;;;;7389999;19;20005;-67
2022/09/16 10:23:24;;;;;;;1.77;0.50;;;;;;;;;;7384920;19;20019;-65
2022/09/16 10:26:02;;;;;;;2.20;0.80;;;;;;;;;;7391105;19;20097;-65
2022/09/16 10:28:28;;;;;;;1.13;0.75;;;;;;;;;;7388639;19;19998;-66
2022/09/16 10:30:56;;;;;;;0.60;0.40;;;;;;;;;;7385371;19;20013;-66
2022/09/16 10:33:27;;;;;;;0.98;0.88;;;;;;;;;;7388259;19;20014;-66
2022/09/16 10:36:07;;;;;;;3.20;0.88;;;;;;;;;;7389352;19;19999;-67
2022/09/16 10:38:37;;;;;;;1.48;0.63;;;;;;;;;;7383679;19;20006;-66
2022/09/16 10:41:13;;;;;;;0.95;0.60;;;;;;;;;;7387324;19;20471;-68
2022/09/16 10:43:56;;;;;;;0.25;0.25;;;;;;;;;;7383291;19;20014;-67
2022/09/16 10:46:21;;;;;;;0.63;0.52;;;;;;;;;;7384832;19;20003;-67
2022/09/16 10:48:49;;;;;;;1.25;0.73;;;;;;;;;;7387762;19;20007;-67
2022/09/16 10:51:24;;;;;;;1.83;0.68;;;;;;;;;;7385154;19;20479;-66
2022/09/16 10:53:57;;;;;;;0.60;0.60;;;;;;;;;;7385375;19;20007;-65
2022/09/16 10:56:28;;;;;;;1.02;0.82;;;;;;;;;;7389242;19;20003;-65
2022/09/16 10:59:13;;;;;;;0.43;0.40;;;;;;;;;;7385827;19;20003;-66
2022/09/16 11:02:24;;;;;;;1.35;0.70;;;;;;;;;;7383614;19;20525;-71
2022/09/16 11:05:04;;;;;;;0.80;0.80;;;;;;;;;;7386098;19;20002;-72
2022/09/16 11:07:43;;;;;;;0.77;0.57;;;;;;;;;;7387899;19;20493;-71
2022/09/16 11:10:36;;;;;;;0.50;0.50;;;;;;;;;;7388545;19;20361;-71
2022/09/16 11:13:40;;;;;;;0.65;0.65;;;;;;;;;;7387554;19;20508;-72
2022/09/16 11:16:14;;;;;;;0.35;0.35;;;;;;;;;;7387103;19;20095;-73
2022/09/16 11:19:10;;;;;;;0.40;0.40;;;;;;;;;;7385755;19;20019;-72
2022/09/16 11:21:41;;;;;;;0.65;0.65;;;;;;;;;;7385284;19;20407;-71
2022/09/16 11:24:48;;;;;;;1.45;0.70;;;;;;;;;;7387362;19;19999;-71
2022/09/16 11:27:28;;;;;;;0.85;0.70;;;;;;;;;;7387315;19;20006;-71
2022/09/16 11:30:10;;;;;;;1.45;0.60;;;;;;;;;;7386224;19;20501;-72
2022/09/16 11:32:52;;;;;;;0.95;0.40;;;;;;;;;;7384936;19;20042;-71
2022/09/16 11:35:34;;;;;;;0.85;0.60;;;;;;;;;;7385299;19;19998;-72
2022/09/16 11:38:12;;;;;;;0.55;0.55;;;;;;;;;;7384123;19;20006;-71
2022/09/16 11:40:46;;;;;;;1.45;0.45;;;;;;;;;;7385030;19;20007;-72
2022/09/16 11:43:15;;;;;;;0.40;0.30;;;;;;;;;;7384328;19;20023;-71
2022/09/16 11:45:57;;;;;;;3.42;0.90;;;;;;;;;;7386058;19;20003;-72
2022/09/16 11:48:42;;;;;;;1.17;0.73;;;;;;;;;;7386499;19;20009;-72
2022/09/16 11:51:52;;;;;;;4.22;0.98;;;;;;;;;;7387742;19;20006;-65
2022/09/16 11:54:20;;;;;;;0.77;0.70;;;;;;;;;;7387672;19;20562;-67
2022/09/16 11:56:54;;;;;;;1.40;1.30;;;;;;;;;;7383972;19;20076;-65
2022/09/16 11:59:29;;;;;;;0.45;0.45;;;;;;;;;;7387906;19;20687;-67
2022/09/16 12:02:09;;;;;;;0.60;0.60;;;;;;;;;;7387351;19;19998;-67
2022/09/16 12:04:54;;;;;;;2.22;1.15;;;;;;;;;;7384092;19;20468;-67
2022/09/16 12:07:35;;;;;;;1.23;1.00;;;;;;;;;;7387736;19;20212;-66
2022/09/16 12:10:24;;;;;;;1.38;0.70;;;;;;;;;;7388172;19;19995;-67
2022/09/16 12:12:59;;;;;;;0.55;0.55;;;;;;;;;;7383065;19;20003;-68
2022/09/16 12:15:29;;;;;;;0.60;0.60;;;;;;;;;;7387455;19;19994;-67
2022/09/16 12:18:02;;;;;;;0.40;0.40;;;;;;;;;;7384966;19;20002;-67
2022/09/16 12:20:35;;;;;;;0.95;0.50;;;;;;;;;;7385299;19;20086;-67
2022/09/16 12:23:08;;;;;;;0.55;0.55;;;;;;;;;;7386865;19;20058;-65
2022/09/16 12:25:41;;;;;;;0.80;0.43;;;;;;;;;;7388969;19;20431;-66
2022/09/16 12:28:24;;;;;;;0.68;0.40;;;;;;;;;;7384823;19;20016;-66
2022/09/16 12:31:16;;;;;;;0.20;0.20;;;;;;;;;;7386098;19;19998;-66
2022/09/16 12:33:53;;;;;;;0.52;0.52;;;;;;;;;;7388427;19;19998;-66
2022/09/16 12:36:24;;;;;;;0.82;0.50;;;;;;;;;;7385227;19;20012;-67
2022/09/16 12:38:49;;;;;;;0.57;0.57;;;;;;;;;;7387568;19;19999;-67
2022/09/16 12:41:36;;;;;;;0.30;0.30;;;;;;;;;;7390389;19;20012;-67
2022/09/16 12:44:36;;;;;;;0.85;0.60;;;;;;;;;;7389780;19;19998;-66
2022/09/16 12:47:20;;;;;;;1.70;0.70;;;;;;;;;;7387312;19;20468;-66
2022/09/16 12:50:10;;;;;;;0.52;0.52;;;;;;;;;;7389068;19;20006;-67
2022/09/16 12:52:44;;;;;;;1.00;0.60;;;;;;;;;;7387164;19;19998;-66
2022/09/16 12:55:31;;;;;;;0.75;0.75;;;;;;;;;;7393901;19;20055;-66
2022/09/16 12:58:37;;;;;;;0.52;0.38;;;;;;;;;;7394206;19;20061;-65
2022/09/16 13:01:11;;;;;;;0.55;0.55;;;;;;;;;;7395647;19;19999;-66
2022/09/16 13:03:41;;;;;;;2.92;0.82;;;;;;;;;;7396251;19;19998;-67
2022/09/16 13:06:25;;;;;;;0.57;0.57;;;;;;;;;;7395273;19;20008;-67
2022/09/16 13:08:51;;;;;;;0.50;0.50;;;;;;;;;;7393866;19;20251;-66
2022/09/16 13:11:23;;;;;;;0.30;0.30;;;;;;;;;;7396617;19;19994;-67
2022/09/16 13:13:52;;;;;;;0.40;0.40;;;;;;;;;;7395528;19;20005;-67
2022/09/16 13:16:35;;;;;;;0.43;0.40;;;;;;;;;;7393457;19;20002;-67
2022/09/16 13:19:28;;;;;;;1.00;0.47;;;;;;;;;;7393098;19;19995;-67
2022/09/16 13:21:59;;;;;;;0.47;0.47;;;;;;;;;;7397229;19;20488;-67
2022/09/16 13:24:44;;;;;;;1.30;0.50;;;;;;;;;;7396395;19;19995;-66
2022/09/16 13:27:33;;;;;;;0.52;0.52;;;;;;;;;;7395919;19;20114;-66
2022/09/16 13:30:10;;;;;;;0.45;0.45;;;;;;;;;;7396522;19;19998;-66
2022/09/16 13:32:42;;;;;;;0.60;0.60;;;;;;;;;;7393506;19;20007;-66
2022/09/16 13:35:17;;;;;;;1.80;0.70;;;;;;;;;;7396299;19;19995;-65
2022/09/16 13:37:43;;;;;;;0.82;0.57;;;;;;;;;;7395237;19;20006;-67
2022/09/16 13:40:34;;;;;;;0.57;0.40;;;;;;;;;;7392163;19;20543;-67
2022/09/16 13:43:06;;;;;;;0.25;0.25;;;;;;;;;;7393379;19;20355;-67
2022/09/16 13:45:36;;;;;;;0.52;0.50;;;;;;;;;;7395513;19;20007;-66
2022/09/16 13:48:12;;;;;;;0.75;0.57;;;;;;;;;;7397150;19;19991;-66
2022/09/16 13:50:42;;;;;;;0.65;0.40;;;;;;;;;;7397112;19;20002;-67
2022/09/16 13:53:10;;;;;;;0.40;0.40;;;;;;;;;;7403498;19;19999;-66
2022/09/16 13:55:38;;;;;;;0.40;0.40;;;;;;;;;;7405470;19;20460;-66
2022/09/16 13:58:21;;;;;;;0.40;0.40;;;;;;;;;;7399898;19;19995;-66
2022/09/16 14:01:11;;;;;;;0.80;0.52;;;;;;;;;;7396397;19;20356;-67
2022/09/16 14:04:13;;;;;;;1.40;0.47;;;;;;;;;;7394699;19;19995;-65
2022/09/16 14:07:23;;;;;;;2.15;0.43;;;;;;;;;;7395279;19;20001;-66
2022/09/16 14:10:17;;;;;;;0.40;0.40;;;;;;;;;;7397193;19;20016;-67
2022/09/16 14:13:11;;;;;;;0.77;0.60;;;;;;;;;;7390127;19;19998;-67
2022/09/16 14:15:41;;;;;;;0.40;0.40;;;;;;;;;;7396254;19;20017;-67
2022/09/16 14:18:12;;;;;;;0.40;0.40;;;;;;;;;;7390007;19;20009;-67
2022/09/16 14:20:38;;;;;;;0.60;0.60;;;;;;;;;;7394134;19;20006;-66
2022/09/16 14:23:15;;;;;;;0.57;0.57;;;;;;;;;;7391190;19;20448;-66
2022/09/16 14:25:41;;;;;;;0.60;0.60;;;;;;;;;;7394483;19;19999;-73
2022/09/16 14:28:22;;;;;;;0.55;0.50;;;;;;;;;;7392962;19;20364;-67
2022/09/16 14:30:55;;;;;;;3.35;0.85;;;;;;;;;;7392753;19;20007;-67
2022/09/16 14:33:25;;;;;;;0.93;0.80;;;;;;;;;;7393109;19;20003;-66
2022/09/16 14:35:53;;;;;;;0.60;0.57;;;;;;;;;;7395878;19;20015;-67
2022/09/16 14:38:20;;;;;;;0.93;0.55;;;;;;;;;;7391348;19;20350;-67
2022/09/16 14:40:46;;;;;;;0.57;0.50;;;;;;;;;;7394466;19;19995;-67
2022/09/16 14:43:16;;;;;;;0.50;0.50;;;;;;;;;;7391715;19;20006;-67
2022/09/16 14:45:47;;;;;;;0.70;0.70;;;;;;;;;;7395121;19;20002;-67
2022/09/16 14:48:14;;;;;;;0.67;0.50;;;;;;;;;;7389251;19;20285;-66
2022/09/16 14:50:43;;;;;;;0.50;0.50;;;;;;;;;;7389207;19;19999;-67
2022/09/16 14:53:30;;;;;;;0.90;0.68;;;;;;;;;;7390070;19;19998;-68
2022/09/16 14:55:56;;;;;;;0.30;0.30;;;;;;;;;;7390291;19;20018;-67
2022/09/16 14:58:25;;;;;;;0.90;0.63;;;;;;;;;;7387737;19;20002;-69
2022/09/16 15:00:57;;;;;;;0.30;0.30;;;;;;;;;;7390681;19;19999;-70
2022/09/16 15:03:43;;;;;;;0.95;0.55;;;;;;;;;;7390833;19;20045;-69
2022/09/16 15:06:15;;;;;;;0.50;0.50;;;;;;;;;;7388522;19;19998;-68
2022/09/16 15:08:47;;;;;;;0.32;0.32;;;;;;;;;;7388232;19;20318;-69
2022/09/16 15:11:18;;;;;;;0.75;0.60;;;;;;;;;;7383753;19;20026;-69
2022/09/16 15:13:44;;;;;;;0.70;0.63;;;;;;;;;;7386150;19;20411;-69
2022/09/16 15:16:18;;;;;;;0.32;0.32;;;;;;;;;;7381792;19;19994;-69
2022/09/16 15:19:18;;;;;;;0.40;0.40;;;;;;;;;;7381098;19;19998;-70